sensor_id;sensor_type;location;lat;lon;timestamp;pressure;altitude;pressure_sealevel;temperature;humidity
33075;BME280;19433;51.292;6.868;2023-10-08T00:00:42;101111.53;;;17.88;82.48
33075;BME280;19433;51.292;6.868;2023-10-08T00:03:12;101097.19;;;17.84;82.54
33075;BME280;19433;51.292;6.868;2023-10-08T00:05:39;101110.69;;;17.87;82.50
33075;BME280;19433;51.292;6.868;2023-10-08T00:08:05;101111.72;;;17.75;82.97
33075;BME280;19433;51.292;6.868;2023-10-08T00:10:38;101113.66;;;17.74;82.92
33075;BME280;19433;51.292;6.868;2023-10-08T00:13:08;101115.72;;;17.67;83.54
33075;BME280;19433;51.292;6.868;2023-10-08T00:15:38;101113.16;;;17.66;83.41
33075;BME280;19433;51.292;6.868;2023-10-08T00:18:09;101118.75;;;17.66;83.50
33075;BME280;19433;51.292;6.868;2023-10-08T00:20:37;101132.09;;;17.64;83.71
33075;BME280;19433;51.292;6.868;2023-10-08T00:23:19;101144.31;;;17.63;83.62
33075;BME280;19433;51.292;6.868;2023-10-08T00:25:45;101152.03;;;17.67;83.36
33075;BME280;19433;51.292;6.868;2023-10-08T00:28:12;101143.47;;;17.80;82.84
33075;BME280;19433;51.292;6.868;2023-10-08T00:30:42;101132.75;;;17.77;82.78
33075;BME280;19433;51.292;6.868;2023-10-08T00:33:09;101127.28;;;17.71;83.12
33075;BME280;19433;51.292;6.868;2023-10-08T00:35:38;101118.16;;;17.75;83.22
33075;BME280;19433;51.292;6.868;2023-10-08T00:38:05;101129.47;;;17.69;83.57
33075;BME280;19433;51.292;6.868;2023-10-08T00:40:37;101129.09;;;17.58;84.25
33075;BME280;19433;51.292;6.868;2023-10-08T00:43:04;101129.97;;;17.59;84.19
33075;BME280;19433;51.292;6.868;2023-10-08T00:45:36;101134.78;;;17.52;84.54
33075;BME280;19433;51.292;6.868;2023-10-08T00:48:09;101141.69;;;17.49;84.71
33075;BME280;19433;51.292;6.868;2023-10-08T00:50:34;101120.28;;;17.43;84.49
33075;BME280;19433;51.292;6.868;2023-10-08T00:53:08;101145.56;;;17.48;84.43
33075;BME280;19433;51.292;6.868;2023-10-08T00:55:46;101142.72;;;17.55;84.25
33075;BME280;19433;51.292;6.868;2023-10-08T00:58:19;101137.34;;;17.53;84.24
33075;BME280;19433;51.292;6.868;2023-10-08T01:00:51;101131.84;;;17.47;84.02
33075;BME280;19433;51.292;6.868;2023-10-08T01:03:18;101127.97;;;17.48;84.46
33075;BME280;19433;51.292;6.868;2023-10-08T01:05:45;101120.84;;;17.34;84.54
33075;BME280;19433;51.292;6.868;2023-10-08T01:08:15;101127.72;;;17.31;84.77
33075;BME280;19433;51.292;6.868;2023-10-08T01:10:48;101123.06;;;17.43;84.51
33075;BME280;19433;51.292;6.868;2023-10-08T01:13:14;101119.44;;;17.25;84.59
33075;BME280;19433;51.292;6.868;2023-10-08T01:15:46;101134.50;;;17.23;85.12
33075;BME280;19433;51.292;6.868;2023-10-08T01:18:15;101139.47;;;17.21;85.49
33075;BME280;19433;51.292;6.868;2023-10-08T01:20:42;101136.59;;;17.10;85.72
33075;BME280;19433;51.292;6.868;2023-10-08T01:23:17;101148.13;;;17.13;85.80
33075;BME280;19433;51.292;6.868;2023-10-08T01:25:46;101153.06;;;17.11;85.98
33075;BME280;19433;51.292;6.868;2023-10-08T01:28:30;101146.88;;;16.91;86.60
33075;BME280;19433;51.292;6.868;2023-10-08T01:30:59;101155.31;;;17.03;86.31
33075;BME280;19433;51.292;6.868;2023-10-08T01:33:32;101159.16;;;16.83;87.46
33075;BME280;19433;51.292;6.868;2023-10-08T01:36:04;101146.81;;;16.73;87.96
33075;BME280;19433;51.292;6.868;2023-10-08T01:38:31;101152.69;;;16.65;88.49
33075;BME280;19433;51.292;6.868;2023-10-08T01:40:58;101143.69;;;16.63;88.30
33075;BME280;19433;51.292;6.868;2023-10-08T01:43:28;101134.06;;;16.52;88.74
33075;BME280;19433;51.292;6.868;2023-10-08T01:45:55;101146.94;;;16.53;89.32
33075;BME280;19433;51.292;6.868;2023-10-08T01:48:20;101129.66;;;16.44;89.04
33075;BME280;19433;51.292;6.868;2023-10-08T01:50:56;101128.63;;;16.39;89.04
33075;BME280;19433;51.292;6.868;2023-10-08T01:53:27;101141.69;;;16.38;89.19
33075;BME280;19433;51.292;6.868;2023-10-08T01:55:53;101140.13;;;16.49;88.84
33075;BME280;19433;51.292;6.868;2023-10-08T01:58:19;101138.28;;;16.36;89.14
33075;BME280;19433;51.292;6.868;2023-10-08T02:00:45;101133.09;;;16.40;88.98
33075;BME280;19433;51.292;6.868;2023-10-08T02:03:12;101144.78;;;16.55;88.51
33075;BME280;19433;51.292;6.868;2023-10-08T02:05:44;101145.94;;;16.47;89.08
33075;BME280;19433;51.292;6.868;2023-10-08T02:08:11;101136.94;;;16.45;88.89
33075;BME280;19433;51.292;6.868;2023-10-08T02:10:38;101137.72;;;16.52;88.20
33075;BME280;19433;51.292;6.868;2023-10-08T02:13:04;101148.88;;;16.52;88.83
33075;BME280;19433;51.292;6.868;2023-10-08T02:15:30;101139.13;;;16.68;88.04
33075;BME280;19433;51.292;6.868;2023-10-08T02:17:55;101150.16;;;16.81;87.80
33075;BME280;19433;51.292;6.868;2023-10-08T02:20:20;101141.78;;;16.57;88.13
33075;BME280;19433;51.292;6.868;2023-10-08T02:22:47;101141.16;;;16.54;88.69
33075;BME280;19433;51.292;6.868;2023-10-08T02:25:14;101145.16;;;16.65;88.30
33075;BME280;19433;51.292;6.868;2023-10-08T02:27:39;101148.53;;;16.74;88.47
33075;BME280;19433;51.292;6.868;2023-10-08T02:30:05;101141.88;;;16.75;88.28
33075;BME280;19433;51.292;6.868;2023-10-08T02:32:34;101130.78;;;16.86;87.29
33075;BME280;19433;51.292;6.868;2023-10-08T02:34:59;101120.88;;;16.91;86.95
33075;BME280;19433;51.292;6.868;2023-10-08T02:37:25;101105.59;;;16.75;87.38
33075;BME280;19433;51.292;6.868;2023-10-08T02:39:50;101117.19;;;16.72;87.92
33075;BME280;19433;51.292;6.868;2023-10-08T02:42:15;101118.38;;;16.64;88.07
33075;BME280;19433;51.292;6.868;2023-10-08T02:44:41;101103.13;;;16.60;88.42
33075;BME280;19433;51.292;6.868;2023-10-08T02:47:08;101124.69;;;16.46;89.08
33075;BME280;19433;51.292;6.868;2023-10-08T02:49:34;101125.78;;;16.45;88.34
33075;BME280;19433;51.292;6.868;2023-10-08T02:52:00;101151.34;;;16.42;88.90
33075;BME280;19433;51.292;6.868;2023-10-08T02:54:25;101145.97;;;16.41;89.40
33075;BME280;19433;51.292;6.868;2023-10-08T02:56:57;101149.00;;;16.39;88.87
33075;BME280;19433;51.292;6.868;2023-10-08T02:59:29;101145.22;;;16.27;89.20
33075;BME280;19433;51.292;6.868;2023-10-08T03:02:04;101138.59;;;16.22;89.12
33075;BME280;19433;51.292;6.868;2023-10-08T03:04:29;101140.63;;;16.08;89.75
33075;BME280;19433;51.292;6.868;2023-10-08T03:06:56;101140.91;;;16.00;90.08
33075;BME280;19433;51.292;6.868;2023-10-08T03:09:22;101155.50;;;15.95;90.34
33075;BME280;19433;51.292;6.868;2023-10-08T03:11:56;101158.06;;;16.03;90.10
33075;BME280;19433;51.292;6.868;2023-10-08T03:14:23;101159.34;;;16.01;90.14
33075;BME280;19433;51.292;6.868;2023-10-08T03:16:53;101161.06;;;16.02;90.06
33075;BME280;19433;51.292;6.868;2023-10-08T03:19:21;101163.91;;;16.20;89.23
33075;BME280;19433;51.292;6.868;2023-10-08T03:21:48;101143.25;;;16.03;89.71
33075;BME280;19433;51.292;6.868;2023-10-08T03:24:17;101140.69;;;16.01;90.09
33075;BME280;19433;51.292;6.868;2023-10-08T03:26:58;101132.25;;;16.14;89.50
33075;BME280;19433;51.292;6.868;2023-10-08T03:29:46;101150.63;;;16.22;89.69
33075;BME280;19433;51.292;6.868;2023-10-08T03:32:12;101179.19;;;16.17;90.18
33075;BME280;19433;51.292;6.868;2023-10-08T03:34:47;101186.84;;;16.29;90.65
33075;BME280;19433;51.292;6.868;2023-10-08T03:37:15;101187.03;;;16.34;89.93
33075;BME280;19433;51.292;6.868;2023-10-08T03:39:49;101188.63;;;16.16;89.89
33075;BME280;19433;51.292;6.868;2023-10-08T03:42:33;101180.06;;;16.11;90.46
33075;BME280;19433;51.292;6.868;2023-10-08T03:45:00;101182.63;;;16.13;90.25
33075;BME280;19433;51.292;6.868;2023-10-08T03:47:36;101169.50;;;16.20;90.17
33075;BME280;19433;51.292;6.868;2023-10-08T03:50:06;101151.84;;;16.01;89.86
33075;BME280;19433;51.292;6.868;2023-10-08T03:52:34;101144.56;;;16.00;90.48
33075;BME280;19433;51.292;6.868;2023-10-08T03:55:03;101141.78;;;15.94;90.33
33075;BME280;19433;51.292;6.868;2023-10-08T03:57:52;101159.78;;;15.98;90.68
33075;BME280;19433;51.292;6.868;2023-10-08T04:00:22;101140.94;;;15.93;90.83
33075;BME280;19433;51.292;6.868;2023-10-08T04:02:57;101135.78;;;15.97;90.47
33075;BME280;19433;51.292;6.868;2023-10-08T04:05:26;101104.56;;;15.88;90.68
33075;BME280;19433;51.292;6.868;2023-10-08T04:08:09;101136.66;;;15.91;90.22
33075;BME280;19433;51.292;6.868;2023-10-08T04:10:50;101161.31;;;15.94;90.26
33075;BME280;19433;51.292;6.868;2023-10-08T04:13:33;101179.28;;;15.98;89.88
33075;BME280;19433;51.292;6.868;2023-10-08T04:15:58;101147.81;;;15.91;89.75
33075;BME280;19433;51.292;6.868;2023-10-08T04:18:24;101167.59;;;15.82;90.12
33075;BME280;19433;51.292;6.868;2023-10-08T04:20:49;101152.81;;;15.75;90.00
33075;BME280;19433;51.292;6.868;2023-10-08T04:23:30;101172.75;;;15.79;89.94
33075;BME280;19433;51.292;6.868;2023-10-08T04:25:55;101184.38;;;15.69;90.70
33075;BME280;19433;51.292;6.868;2023-10-08T04:28:21;101188.19;;;15.75;90.32
33075;BME280;19433;51.292;6.868;2023-10-08T04:30:47;101184.53;;;15.81;90.05
33075;BME280;19433;51.292;6.868;2023-10-08T04:33:13;101186.47;;;15.80;89.43
33075;BME280;19433;51.292;6.868;2023-10-08T04:35:40;101219.47;;;15.83;89.36
33075;BME280;19433;51.292;6.868;2023-10-08T04:38:23;101188.75;;;15.90;89.21
33075;BME280;19433;51.292;6.868;2023-10-08T04:40:50;101202.03;;;15.95;89.14
33075;BME280;19433;51.292;6.868;2023-10-08T04:43:22;101187.94;;;15.83;89.25
33075;BME280;19433;51.292;6.868;2023-10-08T04:45:54;101178.75;;;15.76;88.52
33075;BME280;19433;51.292;6.868;2023-10-08T04:48:19;101178.13;;;15.74;88.45
33075;BME280;19433;51.292;6.868;2023-10-08T04:50:49;101184.31;;;15.76;88.46
33075;BME280;19433;51.292;6.868;2023-10-08T04:53:34;101175.38;;;15.67;88.87
33075;BME280;19433;51.292;6.868;2023-10-08T04:56:08;101178.75;;;15.76;88.74
33075;BME280;19433;51.292;6.868;2023-10-08T04:58:43;101179.44;;;15.71;88.70
33075;BME280;19433;51.292;6.868;2023-10-08T05:01:15;101171.94;;;15.72;88.83
33075;BME280;19433;51.292;6.868;2023-10-08T05:04:10;101181.38;;;15.64;89.16
33075;BME280;19433;51.292;6.868;2023-10-08T05:06:48;101180.31;;;15.65;89.44
33075;BME280;19433;51.292;6.868;2023-10-08T05:09:26;101187.59;;;15.60;89.85
33075;BME280;19433;51.292;6.868;2023-10-08T05:12:04;101208.53;;;15.75;89.39
33075;BME280;19433;51.292;6.868;2023-10-08T05:14:35;101213.72;;;15.72;89.18
33075;BME280;19433;51.292;6.868;2023-10-08T05:17:10;101218.22;;;15.73;89.07
33075;BME280;19433;51.292;6.868;2023-10-08T05:19:37;101224.16;;;15.83;88.96
33075;BME280;19433;51.292;6.868;2023-10-08T05:22:15;101231.88;;;15.88;89.04
33075;BME280;19433;51.292;6.868;2023-10-08T05:24:56;101218.34;;;15.91;89.48
33075;BME280;19433;51.292;6.868;2023-10-08T05:27:52;101240.41;;;15.99;88.55
33075;BME280;19433;51.292;6.868;2023-10-08T05:30:28;101253.22;;;16.07;88.13
33075;BME280;19433;51.292;6.868;2023-10-08T05:33:02;101264.13;;;16.08;88.13
33075;BME280;19433;51.292;6.868;2023-10-08T05:35:28;101264.28;;;16.27;87.15
33075;BME280;19433;51.292;6.868;2023-10-08T05:38:07;101269.00;;;16.26;87.57
33075;BME280;19433;51.292;6.868;2023-10-08T05:40:47;101273.28;;;16.29;87.32
33075;BME280;19433;51.292;6.868;2023-10-08T05:43:36;101252.91;;;16.28;86.70
33075;BME280;19433;51.292;6.868;2023-10-08T05:46:08;101243.75;;;16.14;86.40
33075;BME280;19433;51.292;6.868;2023-10-08T05:48:46;101224.94;;;16.03;87.08
33075;BME280;19433;51.292;6.868;2023-10-08T05:51:26;101226.75;;;15.85;86.82
33075;BME280;19433;51.292;6.868;2023-10-08T05:54:30;101225.72;;;15.72;87.79
33075;BME280;19433;51.292;6.868;2023-10-08T05:57:01;101222.94;;;15.66;88.15
33075;BME280;19433;51.292;6.868;2023-10-08T05:59:36;101220.63;;;15.56;88.69
33075;BME280;19433;51.292;6.868;2023-10-08T06:02:25;101216.97;;;15.49;89.14
33075;BME280;19433;51.292;6.868;2023-10-08T06:05:03;101217.81;;;15.69;88.43
33075;BME280;19433;51.292;6.868;2023-10-08T06:07:42;101218.25;;;15.60;88.85
33075;BME280;19433;51.292;6.868;2023-10-08T06:10:29;101212.03;;;15.51;89.27
33075;BME280;19433;51.292;6.868;2023-10-08T06:15:44;101230.06;;;15.42;89.49
33075;BME280;19433;51.292;6.868;2023-10-08T06:18:35;101236.25;;;15.44;89.78
33075;BME280;19433;51.292;6.868;2023-10-08T06:21:04;101237.75;;;15.53;89.41
33075;BME280;19433;51.292;6.868;2023-10-08T06:23:39;101204.50;;;15.71;88.63
33075;BME280;19433;51.292;6.868;2023-10-08T06:26:04;101233.34;;;15.90;88.15
33075;BME280;19433;51.292;6.868;2023-10-08T06:28:36;101245.97;;;15.93;88.25
33075;BME280;19433;51.292;6.868;2023-10-08T06:31:04;101256.47;;;15.97;89.55
33075;BME280;19433;51.292;6.868;2023-10-08T06:33:37;101262.13;;;16.22;88.66
33075;BME280;19433;51.292;6.868;2023-10-08T06:36:03;101277.56;;;16.25;87.09
33075;BME280;19433;51.292;6.868;2023-10-08T06:38:40;101269.00;;;16.26;86.97
33075;BME280;19433;51.292;6.868;2023-10-08T06:41:07;101278.22;;;16.27;86.97
33075;BME280;19433;51.292;6.868;2023-10-08T06:43:40;101265.97;;;16.34;87.03
33075;BME280;19433;51.292;6.868;2023-10-08T06:46:08;101262.19;;;16.15;87.33
33075;BME280;19433;51.292;6.868;2023-10-08T06:48:38;101267.56;;;16.10;87.15
33075;BME280;19433;51.292;6.868;2023-10-08T06:51:08;101253.63;;;16.10;87.44
33075;BME280;19433;51.292;6.868;2023-10-08T06:53:41;101242.53;;;16.04;86.80
33075;BME280;19433;51.292;6.868;2023-10-08T06:56:06;101235.22;;;16.41;85.98
33075;BME280;19433;51.292;6.868;2023-10-08T06:58:34;101254.59;;;16.29;86.73
33075;BME280;19433;51.292;6.868;2023-10-08T07:01:00;101287.44;;;16.21;86.99
33075;BME280;19433;51.292;6.868;2023-10-08T07:03:35;101260.41;;;16.28;88.14
33075;BME280;19433;51.292;6.868;2023-10-08T07:06:02;101286.69;;;16.45;87.21
33075;BME280;19433;51.292;6.868;2023-10-08T07:08:32;101288.09;;;16.67;86.38
33075;BME280;19433;51.292;6.868;2023-10-08T07:11:02;101286.63;;;16.58;86.20
33075;BME280;19433;51.292;6.868;2023-10-08T07:13:32;101295.13;;;16.76;86.48
33075;BME280;19433;51.292;6.868;2023-10-08T07:15:57;101286.88;;;16.88;86.76
33075;BME280;19433;51.292;6.868;2023-10-08T07:18:23;101291.72;;;16.99;86.49
33075;BME280;19433;51.292;6.868;2023-10-08T07:20:55;101287.00;;;17.00;86.24
33075;BME280;19433;51.292;6.868;2023-10-08T07:23:26;101304.97;;;17.10;84.84
33075;BME280;19433;51.292;6.868;2023-10-08T07:25:58;101311.97;;;17.19;86.01
33075;BME280;19433;51.292;6.868;2023-10-08T07:28:41;101325.63;;;17.28;84.04
33075;BME280;19433;51.292;6.868;2023-10-08T07:31:23;101321.97;;;17.27;84.38
33075;BME280;19433;51.292;6.868;2023-10-08T07:33:56;101338.50;;;17.29;83.11
33075;BME280;19433;51.292;6.868;2023-10-08T07:36:25;101328.25;;;17.47;83.97
33075;BME280;19433;51.292;6.868;2023-10-08T07:38:53;101335.00;;;17.40;82.78
33075;BME280;19433;51.292;6.868;2023-10-08T07:41:19;101328.47;;;17.46;82.97
33075;BME280;19433;51.292;6.868;2023-10-08T07:43:46;101331.78;;;17.61;82.33
33075;BME280;19433;51.292;6.868;2023-10-08T07:46:20;101324.03;;;17.63;81.90
33075;BME280;19433;51.292;6.868;2023-10-08T07:48:45;101317.81;;;17.61;84.10
33075;BME280;19433;51.292;6.868;2023-10-08T07:51:14;101323.81;;;17.65;80.21
33075;BME280;19433;51.292;6.868;2023-10-08T07:53:39;101318.25;;;17.65;80.08
33075;BME280;19433;51.292;6.868;2023-10-08T07:56:07;101331.69;;;17.74;79.61
33075;BME280;19433;51.292;6.868;2023-10-08T07:58:33;101333.25;;;17.88;79.23
33075;BME280;19433;51.292;6.868;2023-10-08T08:01:06;101337.84;;;18.01;77.96
33075;BME280;19433;51.292;6.868;2023-10-08T08:03:35;101342.66;;;18.12;78.83
33075;BME280;19433;51.292;6.868;2023-10-08T08:06:05;101340.88;;;18.18;80.03
33075;BME280;19433;51.292;6.868;2023-10-08T08:08:40;101347.88;;;18.27;80.81
33075;BME280;19433;51.292;6.868;2023-10-08T08:11:07;101347.41;;;18.48;77.94
33075;BME280;19433;51.292;6.868;2023-10-08T08:13:38;101330.16;;;18.15;79.19
33075;BME280;19433;51.292;6.868;2023-10-08T08:16:04;101341.09;;;18.83;77.77
33075;BME280;19433;51.292;6.868;2023-10-08T08:18:45;101347.59;;;19.37;75.10
33075;BME280;19433;51.292;6.868;2023-10-08T08:21:12;101350.91;;;20.03;73.11
33075;BME280;19433;51.292;6.868;2023-10-08T08:23:47;101361.13;;;20.85;69.33
33075;BME280;19433;51.292;6.868;2023-10-08T08:26:23;101361.28;;;21.06;66.77
33075;BME280;19433;51.292;6.868;2023-10-08T08:28:58;101353.03;;;21.17;66.91
33075;BME280;19433;51.292;6.868;2023-10-08T08:31:25;101354.53;;;21.36;66.33
33075;BME280;19433;51.292;6.868;2023-10-08T08:33:52;101371.22;;;21.42;66.83
33075;BME280;19433;51.292;6.868;2023-10-08T08:36:20;101376.50;;;21.56;65.79
33075;BME280;19433;51.292;6.868;2023-10-08T08:38:49;101376.56;;;20.70;67.53
33075;BME280;19433;51.292;6.868;2023-10-08T08:41:15;101379.81;;;20.27;71.19
33075;BME280;19433;51.292;6.868;2023-10-08T08:43:51;101373.72;;;20.07;71.14
33075;BME280;19433;51.292;6.868;2023-10-08T08:46:37;101368.38;;;19.82;73.75
33075;BME280;19433;51.292;6.868;2023-10-08T08:49:06;101375.09;;;19.28;76.16
33075;BME280;19433;51.292;6.868;2023-10-08T08:51:37;101358.63;;;19.08;77.32
33075;BME280;19433;51.292;6.868;2023-10-08T08:54:04;101365.84;;;19.27;76.77
33075;BME280;19433;51.292;6.868;2023-10-08T08:56:37;101363.00;;;18.56;79.32
33075;BME280;19433;51.292;6.868;2023-10-08T08:59:04;101371.81;;;18.89;79.48
33075;BME280;19433;51.292;6.868;2023-10-08T09:01:30;101372.09;;;19.00;81.06
33075;BME280;19433;51.292;6.868;2023-10-08T09:04:00;101368.22;;;19.12;79.52
33075;BME280;19433;51.292;6.868;2023-10-08T09:06:27;101361.28;;;19.03;79.50
33075;BME280;19433;51.292;6.868;2023-10-08T09:08:52;101354.47;;;19.11;77.56
33075;BME280;19433;51.292;6.868;2023-10-08T09:11:21;101385.50;;;19.39;77.83
33075;BME280;19433;51.292;6.868;2023-10-08T09:13:46;101393.63;;;19.41;78.55
33075;BME280;19433;51.292;6.868;2023-10-08T09:16:14;101386.56;;;19.68;76.61
33075;BME280;19433;51.292;6.868;2023-10-08T09:18:44;101381.41;;;20.23;75.71
33075;BME280;19433;51.292;6.868;2023-10-08T09:21:12;101394.97;;;20.15;76.48
33075;BME280;19433;51.292;6.868;2023-10-08T09:23:39;101401.41;;;20.27;75.48
33075;BME280;19433;51.292;6.868;2023-10-08T09:26:11;101410.94;;;20.26;75.54
33075;BME280;19433;51.292;6.868;2023-10-08T09:28:39;101412.66;;;20.15;76.40
33075;BME280;19433;51.292;6.868;2023-10-08T09:31:09;101415.66;;;19.55;77.38
33075;BME280;19433;51.292;6.868;2023-10-08T09:33:35;101408.00;;;19.32;78.12
33075;BME280;19433;51.292;6.868;2023-10-08T09:36:01;101411.44;;;19.46;79.96
33075;BME280;19433;51.292;6.868;2023-10-08T09:38:27;101415.31;;;18.92;79.50
33075;BME280;19433;51.292;6.868;2023-10-08T09:40:55;101417.91;;;18.75;82.30
33075;BME280;19433;51.292;6.868;2023-10-08T09:43:22;101414.34;;;18.98;81.67
33075;BME280;19433;51.292;6.868;2023-10-08T09:46:03;101418.72;;;19.24;81.73
33075;BME280;19433;51.292;6.868;2023-10-08T09:48:36;101423.09;;;19.73;79.08
33075;BME280;19433;51.292;6.868;2023-10-08T09:51:02;101424.41;;;19.17;80.45
33075;BME280;19433;51.292;6.868;2023-10-08T09:53:39;101416.63;;;19.19;79.75
33075;BME280;19433;51.292;6.868;2023-10-08T09:56:13;101419.81;;;19.23;80.57
33075;BME280;19433;51.292;6.868;2023-10-08T09:58:43;101421.56;;;19.36;79.71
33075;BME280;19433;51.292;6.868;2023-10-08T10:01:09;101422.28;;;19.43;78.67
33075;BME280;19433;51.292;6.868;2023-10-08T10:03:35;101402.13;;;19.52;78.08
33075;BME280;19433;51.292;6.868;2023-10-08T10:06:01;101407.75;;;20.22;78.82
33075;BME280;19433;51.292;6.868;2023-10-08T10:08:27;101416.41;;;19.74;78.52
33075;BME280;19433;51.292;6.868;2023-10-08T10:11:00;101402.03;;;20.06;79.19
33075;BME280;19433;51.292;6.868;2023-10-08T10:13:34;101408.38;;;20.24;76.11
33075;BME280;19433;51.292;6.868;2023-10-08T10:15:59;101404.44;;;20.60;74.17
33075;BME280;19433;51.292;6.868;2023-10-08T10:20:53;101405.66;;;21.50;68.65
33075;BME280;19433;51.292;6.868;2023-10-08T10:23:43;101404.56;;;21.51;69.61
33075;BME280;19433;51.292;6.868;2023-10-08T10:31:44;101408.38;;;22.28;68.50
33075;BME280;19433;51.292;6.868;2023-10-08T10:34:12;101412.50;;;22.64;68.02
33075;BME280;19433;51.292;6.868;2023-10-08T10:36:39;101417.06;;;22.87;65.30
33075;BME280;19433;51.292;6.868;2023-10-08T10:39:09;101416.72;;;21.73;69.46
33075;BME280;19433;51.292;6.868;2023-10-08T10:41:45;101421.28;;;21.29;71.26
33075;BME280;19433;51.292;6.868;2023-10-08T10:44:15;101422.00;;;21.36;71.46
33075;BME280;19433;51.292;6.868;2023-10-08T10:46:45;101424.16;;;22.51;69.98
33075;BME280;19433;51.292;6.868;2023-10-08T10:49:19;101431.97;;;23.09;65.03
33075;BME280;19433;51.292;6.868;2023-10-08T10:51:55;101421.88;;;22.70;66.19
33075;BME280;19433;51.292;6.868;2023-10-08T10:54:23;101423.84;;;22.09;70.17
33075;BME280;19433;51.292;6.868;2023-10-08T10:56:49;101424.56;;;21.88;69.66
33075;BME280;19433;51.292;6.868;2023-10-08T10:59:29;101426.06;;;21.28;73.27
33075;BME280;19433;51.292;6.868;2023-10-08T11:02:02;101427.50;;;21.31;71.66
33075;BME280;19433;51.292;6.868;2023-10-08T11:04:35;101427.22;;;20.64;75.49
33075;BME280;19433;51.292;6.868;2023-10-08T11:07:13;101428.88;;;20.13;79.54
33075;BME280;19433;51.292;6.868;2023-10-08T11:09:39;101430.94;;;20.53;76.45
33075;BME280;19433;51.292;6.868;2023-10-08T11:12:09;101423.69;;;19.52;78.95
33075;BME280;19433;51.292;6.868;2023-10-08T11:14:39;101421.50;;;19.54;80.34
33075;BME280;19433;51.292;6.868;2023-10-08T11:19:38;101421.91;;;20.04;78.28
33075;BME280;19433;51.292;6.868;2023-10-08T11:22:03;101412.28;;;20.12;79.44
33075;BME280;19433;51.292;6.868;2023-10-08T11:24:33;101411.31;;;19.83;79.41
33075;BME280;19433;51.292;6.868;2023-10-08T11:26:59;101409.72;;;19.33;82.31
33075;BME280;19433;51.292;6.868;2023-10-08T11:29:54;101404.34;;;19.32;81.54
33075;BME280;19433;51.292;6.868;2023-10-08T11:32:24;101408.47;;;19.59;81.95
33075;BME280;19433;51.292;6.868;2023-10-08T11:34:56;101409.00;;;19.38;80.89
33075;BME280;19433;51.292;6.868;2023-10-08T11:37:31;101413.38;;;19.76;80.60
33075;BME280;19433;51.292;6.868;2023-10-08T11:40:00;101413.75;;;20.38;79.97
33075;BME280;19433;51.292;6.868;2023-10-08T11:42:34;101401.53;;;20.20;80.31
33075;BME280;19433;51.292;6.868;2023-10-08T11:44:59;101408.25;;;20.19;78.87
33075;BME280;19433;51.292;6.868;2023-10-08T11:47:25;101413.13;;;20.12;78.04
33075;BME280;19433;51.292;6.868;2023-10-08T11:49:56;101401.38;;;20.50;77.14
33075;BME280;19433;51.292;6.868;2023-10-08T11:52:35;101397.13;;;20.48;77.07
33075;BME280;19433;51.292;6.868;2023-10-08T11:55:06;101398.84;;;20.02;77.20
33075;BME280;19433;51.292;6.868;2023-10-08T11:57:32;101402.66;;;19.96;78.56
33075;BME280;19433;51.292;6.868;2023-10-08T12:00:03;101396.88;;;20.49;77.72
33075;BME280;19433;51.292;6.868;2023-10-08T12:02:47;101390.94;;;20.11;77.42
33075;BME280;19433;51.292;6.868;2023-10-08T12:05:13;101384.56;;;20.27;76.89
33075;BME280;19433;51.292;6.868;2023-10-08T12:07:49;101389.38;;;21.06;74.30
33075;BME280;19433;51.292;6.868;2023-10-08T12:10:16;101379.56;;;21.37;73.96
33075;BME280;19433;51.292;6.868;2023-10-08T12:12:50;101390.31;;;22.07;72.53
33075;BME280;19433;51.292;6.868;2023-10-08T12:15:18;101390.41;;;22.34;67.85
33075;BME280;19433;51.292;6.868;2023-10-08T12:17:53;101397.56;;;22.64;68.89
33075;BME280;19433;51.292;6.868;2023-10-08T12:20:40;101390.81;;;22.04;70.16
33075;BME280;19433;51.292;6.868;2023-10-08T12:23:12;101388.34;;;22.08;70.17
33075;BME280;19433;51.292;6.868;2023-10-08T12:25:50;101394.16;;;21.51;72.45
33075;BME280;19433;51.292;6.868;2023-10-08T12:28:17;101391.16;;;21.41;72.27
33075;BME280;19433;51.292;6.868;2023-10-08T12:30:44;101383.78;;;21.68;72.80
33075;BME280;19433;51.292;6.868;2023-10-08T12:33:10;101384.94;;;21.56;73.19
33075;BME280;19433;51.292;6.868;2023-10-08T12:35:39;101374.84;;;20.98;73.97
33075;BME280;19433;51.292;6.868;2023-10-08T12:38:04;101378.09;;;20.90;75.87
33075;BME280;19433;51.292;6.868;2023-10-08T12:40:31;101370.72;;;21.17;74.18
33075;BME280;19433;51.292;6.868;2023-10-08T12:43:12;101363.94;;;20.85;74.73
33075;BME280;19433;51.292;6.868;2023-10-08T12:45:37;101349.50;;;21.10;75.66
33075;BME280;19433;51.292;6.868;2023-10-08T12:48:03;101354.94;;;20.71;77.18
33075;BME280;19433;51.292;6.868;2023-10-08T12:50:30;101344.88;;;20.58;76.96
33075;BME280;19433;51.292;6.868;2023-10-08T12:53:04;101345.50;;;20.49;78.32
33075;BME280;19433;51.292;6.868;2023-10-08T12:55:30;101332.53;;;19.96;79.34
33075;BME280;19433;51.292;6.868;2023-10-08T12:57:56;101346.41;;;20.02;80.10
33075;BME280;19433;51.292;6.868;2023-10-08T13:00:31;101352.47;;;20.23;81.79
33075;BME280;19433;51.292;6.868;2023-10-08T13:02:56;101327.38;;;20.16;81.65
33075;BME280;19433;51.292;6.868;2023-10-08T13:05:22;101330.78;;;20.07;81.65
33075;BME280;19433;51.292;6.868;2023-10-08T13:07:55;101339.09;;;20.13;84.02
33075;BME280;19433;51.292;6.868;2023-10-08T13:10:24;101319.38;;;19.61;82.59
33075;BME280;19433;51.292;6.868;2023-10-08T13:12:50;101341.31;;;19.64;85.25
33075;BME280;19433;51.292;6.868;2023-10-08T13:15:16;101349.97;;;19.98;83.22
33075;BME280;19433;51.292;6.868;2023-10-08T13:17:41;101307.31;;;19.49;84.87
33075;BME280;19433;51.292;6.868;2023-10-08T13:20:12;101306.06;;;19.57;85.19
33075;BME280;19433;51.292;6.868;2023-10-08T13:22:40;101336.06;;;19.91;84.86